Stillwater Regional Airport
KSWO : now visible

Airfield :











YOU CAN JOIN US ON...

 
LOGIN :

Register | Disclaimer

   EN    FR    IT 

 









Legend :    VFR   Marginal VFR   IFR   Intensive IFR   Very Intensive IFR
Visi :
Ceiling :
>= 8 km
>= 3000ft
5 to 8 km
1000 to 3000 ft
1500m to 5 km
500 to 1000 ft
800 to 1500m
200 to 500 ft
< 800m
< 200 ft
Symbols :   Thunderstorms  Fog  Heavy snow  Heavy precipitations  Wind > 20 kt






- Airport Elevation : 1000 ft


KSWO - Stillwater Regional

CURRENT METAR :
  • 291753Z 03009KT 10SM CLR 27/12 A3019 RMK AO2 SLP211 T02720122 10272 20156 58010

EXPIRED METARs :
  • 291653Z 03009KT 10SM CLR 26/12 A3021 RMK AO2 SLP219 T02610117
  • 291553Z 05010KT 10SM CLR 24/12 A3021 RMK AO2 SLP219 T02440117
  • 291453Z 05008KT 10SM CLR 23/13 A3022 RMK AO2 SLP222 T02330128 53017

TAF N/A
KZKC FIR / North America



MET'MAP, your aeronautical weather chart ! - Copyright ORBIFLY December 2007 - Disclaimer

ORBIFLY MET'MAP TEAM :

Programming & Development : Alexandra Zaïnal
Concept & original design : Baudouin d'Aumeries
Assistance for programming : Marc-Olivier Méhu
Technical & hardware support : Manuel Goepfert

Contact : metmap@orbifly.com




SOURCES & CREDITS :

   NOAA       Earth
Advisory